createdAt,value
2018-07-11T00:07:00.586Z,15.03
2018-07-11T00:16:58.335Z,15.12
2018-07-11T00:26:52.852Z,15.02
2018-07-11T00:36:47.955Z,15.02
2018-07-11T00:46:47.048Z,15.02
2018-07-11T00:56:44.671Z,15.02
2018-07-11T01:06:41.029Z,15.02
2018-07-11T01:16:39.029Z,15.02
2018-07-11T01:26:36.704Z,15.03
2018-07-11T01:36:34.617Z,14.93
2018-07-11T01:46:30.988Z,14.83
2018-07-11T01:56:30.199Z,14.83
2018-07-11T02:06:27.588Z,15.02
2018-07-11T02:16:26.194Z,14.93
2018-07-11T02:26:21.561Z,15.03
2018-07-11T02:36:20.218Z,14.93
2018-07-11T02:46:16.224Z,14.83
2018-07-11T02:56:13.751Z,14.83
2018-07-11T03:06:10.888Z,14.83
2018-07-11T03:16:08.626Z,14.83
2018-07-11T03:26:05.949Z,14.93
2018-07-11T03:35:58.774Z,14.83
2018-07-11T03:45:57.452Z,14.83
2018-07-11T03:55:55.323Z,14.93
2018-07-11T04:05:51.850Z,14.93
2018-07-11T04:15:49.871Z,14.93
2018-07-11T04:25:47.694Z,14.93
2018-07-11T04:35:46.033Z,15.12
2018-07-11T04:45:45.400Z,15.12
2018-07-11T04:55:39.507Z,15.22
2018-07-11T05:05:33.827Z,15.22
2018-07-11T05:15:32.928Z,15.32
2018-07-11T05:25:30.564Z,15.22
2018-07-11T05:35:28.021Z,15.42
2018-07-11T05:45:25.843Z,15.42
2018-07-11T05:55:22.238Z,15.71
2018-07-11T06:05:19.069Z,15.81
2018-07-11T06:15:16.656Z,16.20
2018-07-11T06:25:12.740Z,16.10
2018-07-11T06:35:07.366Z,16.30
2018-07-11T06:45:05.843Z,16.69
2018-07-11T06:55:04.243Z,16.78
2018-07-11T07:05:01.346Z,16.78
2018-07-11T07:14:57.401Z,16.69
2018-07-11T07:24:54.612Z,17.08
2018-07-11T07:34:53.718Z,17.37
2018-07-11T07:44:50.846Z,17.27
2018-07-11T07:54:47.096Z,17.76
2018-07-11T08:04:46.575Z,18.06
2018-07-11T08:14:42.908Z,18.06
2018-07-11T08:24:40.457Z,18.45
2018-07-11T08:34:38.248Z,18.55
2018-07-11T08:44:35.845Z,18.84
2018-07-11T08:54:31.165Z,19.23
2018-07-11T09:04:24.205Z,19.43
2018-07-11T09:14:23.143Z,19.33
2018-07-11T09:24:20.038Z,19.62
2018-07-11T09:34:17.134Z,20.21
2018-07-11T09:44:14.340Z,20.99
2018-07-11T09:54:11.961Z,21.19
2018-07-11T10:04:06.785Z,20.80
2018-07-11T10:14:06.148Z,21.58
2018-07-11T10:24:04.153Z,21.19
2018-07-11T10:34:00.976Z,20.60
2018-07-11T10:43:55.685Z,20.01
2018-07-11T10:53:49.090Z,19.52
2018-07-11T11:03:39.871Z,19.03
2018-07-11T11:13:35.220Z,18.64
2018-07-11T11:23:31.293Z,18.74
2018-07-11T11:33:30.413Z,18.55
2018-07-11T11:43:24.463Z,19.04
2018-07-11T11:53:22.892Z,19.13
2018-07-11T12:03:19.531Z,20.21
2018-07-11T12:13:19.933Z,22.95
2018-07-11T12:23:17.941Z,22.46
2018-07-11T12:33:08.619Z,20.50
2018-07-11T12:43:05.667Z,20.40
2018-07-11T12:53:03.358Z,20.60
2018-07-11T13:02:58.926Z,20.80
2018-07-11T13:12:56.505Z,19.82
2018-07-11T13:22:54.193Z,19.13
2018-07-11T13:32:35.852Z,18.06
2018-07-11T13:42:30.038Z,16.49
2018-07-11T13:52:24.173Z,15.51
2018-07-11T14:02:21.115Z,15.12
2018-07-11T14:12:16.782Z,15.22
2018-07-11T14:22:14.057Z,15.32
2018-07-11T14:32:08.828Z,15.51
2018-07-11T14:42:07.309Z,15.61
2018-07-11T14:52:05.434Z,15.81
2018-07-11T15:02:02.447Z,15.81
2018-07-11T15:11:58.956Z,15.71
2018-07-11T15:21:48.438Z,15.81
2018-07-11T15:31:43.005Z,15.71
2018-07-11T15:41:38.689Z,15.51
2018-07-11T15:51:36.530Z,15.51
2018-07-11T16:01:27.816Z,15.42
2018-07-11T16:11:22.922Z,15.51
2018-07-11T16:21:21.905Z,15.51
2018-07-11T16:31:17.521Z,15.51
2018-07-11T16:41:14.910Z,15.42
2018-07-11T16:51:10.336Z,15.42
2018-07-11T17:01:08.434Z,15.42
2018-07-11T17:11:05.422Z,15.51
2018-07-11T17:20:57.805Z,15.42
2018-07-11T17:30:52.981Z,15.32
2018-07-11T17:40:50.484Z,15.32
2018-07-11T17:50:48.383Z,15.32
2018-07-11T18:00:45.867Z,15.22
2018-07-11T18:10:40.981Z,15.22
2018-07-11T18:20:35.738Z,15.22
2018-07-11T18:30:27.611Z,15.22
2018-07-11T18:40:25.545Z,15.12
2018-07-11T18:50:19.470Z,15.12
2018-07-11T19:00:03.845Z,15.12
2018-07-11T19:09:59.108Z,15.03
2018-07-11T19:19:50.430Z,15.12
2018-07-11T19:29:45.526Z,14.93
2018-07-11T19:39:38.640Z,14.83
2018-07-11T19:49:32.934Z,14.83
2018-07-11T19:59:26.479Z,14.73
2018-07-11T20:09:21.510Z,14.73
2018-07-11T20:19:13.877Z,14.73
2018-07-11T20:29:07.230Z,14.73
2018-07-11T20:39:03.357Z,14.63
2018-07-11T20:48:57.882Z,14.53
2018-07-11T20:58:53.604Z,14.54
2018-07-11T21:08:52.354Z,14.53
2018-07-11T21:18:49.256Z,14.44
2018-07-11T21:28:45.124Z,14.44
2018-07-11T21:38:41.769Z,14.54
2018-07-11T21:48:39.888Z,14.54
2018-07-11T21:58:37.075Z,14.34
2018-07-11T22:08:32.961Z,14.34
2018-07-11T22:18:31.009Z,14.34
2018-07-11T22:28:15.539Z,14.44
2018-07-11T22:38:04.162Z,14.24
2018-07-11T22:47:58.972Z,14.44
2018-07-11T22:57:57.940Z,14.34
2018-07-11T23:07:56.472Z,14.34
2018-07-11T23:17:53.294Z,14.14
2018-07-11T23:27:49.676Z,14.14
2018-07-11T23:37:48.011Z,14.14
2018-07-11T23:47:43.653Z,14.14
2018-07-11T23:57:39.095Z,14.14
